Aeroporto :
LOGIN :

Iscrizione | Disclaimer

   EN    FR    IT 

 










Sommario :    VFR   VFR Marginale   IFR   IFR Intensivo   IFR Molto Intensivo
Visibilità : 
Base nubi : 
>= 8 km
>= 3000ft
5 / 8 km
1000 / 3000 ft
1500m / 5 km
500 / 1000 ft
800 / 1500m
200 / 500 ft
< 800m
< 200 ft
Simboli :   Temporali  Nebbia  Neve Forte  Precipitazioni Forti  Vento > 20 kt
SIGMETs :   Varie  Temporali  Ghiacco  Turbolenza  Onda orograficha  Ceneri Vulcaniche







- Altitudine del aeroporto : 129 ft
- Codice IATA : ZCN


ETHC - Celle

ULTIMO METAR :
  • 201942Z 18005KT 8000 VCTS SCT040CB BKN070 19/16 Q1012 BLU

METARs OBSOLETI :
  • 201920Z 21005KT 7000 -TSRA BKN040CB BKN080 19/15 Q1012 WHT
  • 201820Z 26004KT 9999 FEW040CB SCT050 BKN110 23/13 Q1011 BLU
  • 201720Z 26006KT 9999 FEW044TCU SCT110 24/13 Q1011 BLU+

TAF AMD TAF ETHC
Valido dal 20 a 14 ore il 20 a 23 ore UTC


201614Z 2014/2023 25010KT 9999 NSW SCT035
TEMPO 2014/2023 27012G22KT 5000 SHRA SCT020 BKN025CB
PROB30 2014/2023 27015G30KT 3000 TSRA SCT010 BKN015CB CANCEL 1645
Nessun NOTAM noto per questo aeroporto.



MetMap, La meteo Aeronautica in un colpo d'occhio ! - Copyright ORBIFLY Dicembre 2007 - Disclaimer

ORBIFLY MET'MAP TEAM :

Programmazione e sviluppo : Alexandra Zaïnal
Concezione e sviluppo : Baudouin d'Aumeries
Co-Programmazione e sviluppo : Marc-Olivier Méhu
Supporto tecnico e logistico : Manuel Goepfert
Aiuto per la traduzione : Arnaldo La Scala

Contatto : metmap@orbifly.com




FONTI E CREDITI :

   NOAA